Time;durP1;ratioP1;P1;durP2;ratioP2;P2;SDS_P1;SDS_P2;PMS_P1;PMS_P2;Temp;Humidity;BMP_temperature;BMP_pressure;BME280_temperature;BME280_humidity;BME280_pressure;Samples;Min_cycle;Max_cycle;Signal;HPM_P1;HPM_P2
2022/05/10 00:02:02;;;;;;;11.80;6.47;;;15.70;99.90;;;;;;5009256;28;20034;-69
2022/05/10 00:04:28;;;;;;;9.38;5.32;;;15.60;99.90;;;;;;5012164;28;20120;-70
2022/05/10 00:06:54;;;;;;;8.48;5.60;;;15.60;99.90;;;;;;5010395;28;20125;-70
2022/05/10 00:09:22;;;;;;;8.25;5.80;;;15.60;99.90;;;;;;5020529;28;20033;-69
2022/05/10 00:11:49;;;;;;;11.05;5.82;;;15.60;99.90;;;;;;5008649;28;21152;-70
2022/05/10 00:14:15;;;;;;;8.73;5.38;;;15.60;99.90;;;;;;5012782;28;20022;-69
2022/05/10 00:16:43;;;;;;;9.50;5.70;;;15.40;99.90;;;;;;5007593;28;20374;-69
2022/05/10 00:19:14;;;;;;;11.40;5.40;;;15.20;99.90;;;;;;5009802;28;20033;-69
2022/05/10 00:21:41;;;;;;;11.05;5.85;;;15.20;99.90;;;;;;5003316;28;20033;-69
2022/05/10 00:24:07;;;;;;;11.40;6.22;;;15.10;99.90;;;;;;5012508;28;20487;-69
2022/05/10 00:26:32;;;;;;;14.07;5.80;;;15.20;99.90;;;;;;5012586;28;20032;-69
2022/05/10 00:29:00;;;;;;;12.43;6.18;;;15.20;99.90;;;;;;5010734;28;20109;-69
2022/05/10 00:31:26;;;;;;;8.73;5.18;;;15.30;99.90;;;;;;5012719;28;20022;-70
2022/05/10 00:33:52;;;;;;;9.30;5.32;;;15.20;99.90;;;;;;5006990;28;20029;-69
2022/05/10 00:36:21;;;;;;;14.85;5.70;;;15.30;99.90;;;;;;5012917;28;20160;-69
2022/05/10 00:38:47;;;;;;;10.93;6.20;;;15.40;99.90;;;;;;5011990;28;20124;-69
2022/05/10 00:41:39;;;;;;;9.25;5.88;;;15.40;99.90;;;;;;5010114;28;20385;-70
2022/05/10 00:44:31;;;;;;;8.45;5.60;;;15.40;99.90;;;;;;5010769;28;20038;-69
2022/05/10 00:47:15;;;;;;;11.90;5.47;;;15.40;99.90;;;;;;5010293;28;20040;-70
2022/05/10 00:49:43;;;;;;;12.07;6.03;;;15.40;99.90;;;;;;5003305;28;20396;-69
2022/05/10 00:52:14;;;;;;;11.18;5.72;;;15.30;99.90;;;;;;5010468;28;20289;-69
2022/05/10 00:55:05;;;;;;;9.90;5.30;;;15.40;99.90;;;;;;5012310;28;20072;-69
2022/05/10 00:57:31;;;;;;;10.75;5.95;;;15.40;99.90;;;;;;5013113;28;20049;-69
2022/05/10 01:00:06;;;;;;;11.43;6.55;;;15.40;99.90;;;;;;5008169;28;20069;-70
2022/05/10 01:02:48;;;;;;;7.75;4.90;;;15.40;99.90;;;;;;5008968;28;20082;-69
2022/05/10 01:05:18;;;;;;;11.75;5.72;;;15.30;99.90;;;;;;5011894;28;20484;-69
2022/05/10 01:07:52;;;;;;;8.20;5.75;;;15.30;99.90;;;;;;5008301;28;20030;-69
2022/05/10 01:10:51;;;;;;;16.50;6.10;;;15.30;99.90;;;;;;5006866;28;20022;-69
2022/05/10 01:13:27;;;;;;;10.45;5.55;;;15.30;99.90;;;;;;4998465;28;20064;-69
2022/05/10 01:16:07;;;;;;;9.52;5.93;;;15.30;99.90;;;;;;5008035;28;20033;-69
2022/05/10 01:18:34;;;;;;;9.27;5.38;;;15.20;99.90;;;;;;5008976;28;20057;-70
2022/05/10 01:21:37;;;;;;;9.80;5.35;;;15.30;99.90;;;;;;5011710;28;20034;-69
2022/05/10 01:24:09;;;;;;;10.80;5.82;;;15.10;99.90;;;;;;5011122;28;20033;-69
2022/05/10 01:26:57;;;;;;;8.88;5.75;;;15.00;99.90;;;;;;5011213;28;20068;-69
2022/05/10 01:29:27;;;;;;;10.70;5.90;;;14.90;99.90;;;;;;5002531;28;20036;-69
2022/05/10 01:34:49;;;;;;;10.52;6.32;;;14.70;99.90;;;;;;5010435;28;20092;-70
2022/05/10 01:37:19;;;;;;;9.95;5.40;;;14.70;99.90;;;;;;5006845;28;20052;-69
2022/05/10 01:39:57;;;;;;;9.65;6.38;;;14.70;99.90;;;;;;5010326;28;20029;-69
2022/05/10 01:42:30;;;;;;;9.55;5.50;;;14.70;99.90;;;;;;5010538;28;20034;-69
2022/05/10 01:45:04;;;;;;;9.85;5.18;;;14.60;99.90;;;;;;5008702;28;20092;-70
2022/05/10 01:47:47;;;;;;;11.68;5.65;;;14.80;99.90;;;;;;5012074;28;20040;-69
2022/05/10 01:50:18;;;;;;;9.25;5.22;;;14.90;99.90;;;;;;5010517;28;20041;-69
2022/05/10 01:53:03;;;;;;;13.85;6.00;;;15.00;99.90;;;;;;5002805;28;20035;-70
2022/05/10 01:55:37;;;;;;;14.00;5.70;;;15.10;99.90;;;;;;5010958;28;20025;-70
2022/05/10 01:58:15;;;;;;;11.05;5.55;;;15.10;99.90;;;;;;5011259;28;20026;-70
2022/05/10 02:00:45;;;;;;;12.90;5.35;;;15.00;99.90;;;;;;5011247;28;20036;-69
2022/05/10 02:03:23;;;;;;;15.50;6.97;;;14.90;99.90;;;;;;5005743;28;20081;-69
2022/05/10 02:06:07;;;;;;;14.07;6.50;;;14.80;99.90;;;;;;5004617;28;20121;-70
2022/05/10 02:08:50;;;;;;;10.05;6.05;;;14.60;99.90;;;;;;5004739;28;20041;-70
2022/05/10 02:11:17;;;;;;;13.55;6.15;;;14.60;99.90;;;;;;5002357;28;20030;-69
2022/05/10 02:13:58;;;;;;;10.63;6.30;;;14.60;99.90;;;;;;5010883;28;20046;-69
2022/05/10 02:16:32;;;;;;;12.23;5.68;;;14.70;99.90;;;;;;5025459;28;20033;-69
2022/05/10 02:19:24;;;;;;;12.07;5.93;;;14.70;99.90;;;;;;5015041;28;20550;-70
2022/05/10 02:22:13;;;;;;;8.43;6.05;;;14.80;99.90;;;;;;5008920;28;20652;-69
2022/05/10 02:24:49;;;;;;;9.68;6.00;;;14.70;99.90;;;;;;5005143;28;20033;-69
2022/05/10 02:27:22;;;;;;;11.43;5.78;;;14.60;99.90;;;;;;5008337;28;20030;-70
2022/05/10 02:29:50;;;;;;;11.35;6.03;;;14.40;99.90;;;;;;5011981;28;20038;-69
2022/05/10 02:35:15;;;;;;;9.40;6.70;;;14.30;99.90;;;;;;5010287;28;20044;-70
2022/05/10 02:37:41;;;;;;;12.57;6.30;;;14.30;99.90;;;;;;5009506;28;20461;-69
2022/05/10 02:40:08;;;;;;;8.98;6.07;;;14.30;99.90;;;;;;5010040;28;20040;-69
2022/05/10 02:42:34;;;;;;;11.25;5.57;;;14.40;99.90;;;;;;5003561;28;20049;-69
2022/05/10 02:45:01;;;;;;;10.00;5.57;;;14.40;99.90;;;;;;4997853;28;20058;-70
2022/05/10 02:47:32;;;;;;;11.48;5.93;;;14.10;99.90;;;;;;5005995;28;20034;-69
2022/05/10 02:49:59;;;;;;;10.02;5.93;;;13.90;99.90;;;;;;5005502;28;20034;-69
2022/05/10 02:52:24;;;;;;;16.23;6.80;;;13.80;99.90;;;;;;5003191;28;20042;-70
2022/05/10 02:55:18;;;;;;;14.35;5.70;;;14.00;99.90;;;;;;5010096;28;20029;-69
2022/05/10 02:57:46;;;;;;;16.60;6.38;;;14.00;99.90;;;;;;5003169;28;20124;-70
2022/05/10 03:00:13;;;;;;;10.63;6.60;;;13.90;99.90;;;;;;5011721;28;20026;-68
2022/05/10 03:02:43;;;;;;;10.50;6.15;;;13.80;99.90;;;;;;4996448;28;20050;-69
2022/05/10 03:05:10;;;;;;;11.48;6.50;;;13.80;99.90;;;;;;5003030;28;20053;-68
2022/05/10 03:07:38;;;;;;;9.30;6.00;;;13.80;99.90;;;;;;5010436;28;20045;-69
2022/05/10 03:10:05;;;;;;;7.55;5.80;;;13.70;99.90;;;;;;5002992;28;20037;-68
2022/05/10 03:12:31;;;;;;;10.00;5.95;;;13.70;99.90;;;;;;4996481;28;20045;-68
2022/05/10 03:14:57;;;;;;;17.15;6.65;;;13.60;99.90;;;;;;4992177;28;20096;-68
2022/05/10 03:17:23;;;;;;;12.13;5.72;;;13.60;99.90;;;;;;5003579;28;20492;-68
2022/05/10 03:19:49;;;;;;;15.43;6.72;;;13.30;99.90;;;;;;5001508;28;20116;-68
2022/05/10 03:22:14;;;;;;;9.43;5.45;;;13.30;99.90;;;;;;4994203;28;20291;-68
2022/05/10 03:24:40;;;;;;;13.88;6.40;;;13.20;99.90;;;;;;4994662;28;20477;-69
2022/05/10 03:27:07;;;;;;;11.60;5.78;;;13.30;99.90;;;;;;5004483;28;20084;-68
2022/05/10 03:29:33;;;;;;;12.18;5.43;;;13.40;99.90;;;;;;5000252;28;20498;-68
2022/05/10 03:31:59;;;;;;;9.80;5.78;;;13.30;99.90;;;;;;4994675;28;20050;-67
2022/05/10 03:37:24;;;;;;;;;;;13.30;99.90;;;;;;5011364;28;20651;-68
2022/05/10 03:39:49;;;;;;;13.70;5.53;;;13.30;99.90;;;;;;5005315;28;19911;-68
2022/05/10 03:42:15;;;;;;;9.25;5.57;;;13.30;99.90;;;;;;4997513;28;20084;-67
2022/05/10 03:44:41;;;;;;;13.43;6.85;;;13.20;99.90;;;;;;5009275;28;20041;-68
2022/05/10 03:47:09;;;;;;;12.60;6.50;;;13.10;99.90;;;;;;4992253;28;20030;-68
2022/05/10 03:49:35;;;;;;;10.77;5.57;;;13.10;99.90;;;;;;5001940;28;20109;-68
2022/05/10 03:52:01;;;;;;;10.32;5.60;;;13.00;99.90;;;;;;5004610;28;20129;-68
2022/05/10 03:54:27;;;;;;;10.43;6.03;;;12.80;99.90;;;;;;5006506;28;20480;-68
2022/05/10 03:56:53;;;;;;;10.20;5.93;;;12.90;99.90;;;;;;5010357;28;20065;-68
2022/05/10 03:59:19;;;;;;;8.77;5.70;;;12.90;99.90;;;;;;5003338;28;20373;-68
2022/05/10 04:01:46;;;;;;;10.05;6.38;;;12.80;99.90;;;;;;4987344;28;20069;-68
2022/05/10 04:04:11;;;;;;;11.25;6.38;;;12.80;99.90;;;;;;4983723;28;20049;-68
2022/05/10 04:06:37;;;;;;;10.40;7.32;;;12.70;99.90;;;;;;4990136;28;20037;-67
2022/05/10 04:09:03;;;;;;;13.85;6.55;;;12.70;99.90;;;;;;4981123;28;20041;-68
2022/05/10 04:11:29;;;;;;;11.15;5.82;;;12.70;99.90;;;;;;4996973;28;20125;-68
2022/05/10 04:13:55;;;;;;;14.23;6.60;;;12.70;99.90;;;;;;5003516;28;20129;-68
2022/05/10 04:16:22;;;;;;;9.98;5.68;;;12.70;99.90;;;;;;5006345;28;20211;-67
2022/05/10 04:18:48;;;;;;;12.23;6.28;;;12.80;99.90;;;;;;4995079;28;20041;-68
2022/05/10 04:21:13;;;;;;;9.00;5.55;;;12.80;99.90;;;;;;4996945;28;20057;-68
2022/05/10 04:23:39;;;;;;;16.90;6.22;;;12.90;99.90;;;;;;5009013;28;20131;-68
2022/05/10 04:26:08;;;;;;;10.95;6.22;;;13.00;99.90;;;;;;5009708;28;20034;-68
2022/05/10 04:28:35;;;;;;;14.07;6.88;;;12.80;99.90;;;;;;5004674;28;20594;-68
2022/05/10 04:31:01;;;;;;;13.05;6.82;;;12.70;99.90;;;;;;5005575;28;20746;-68
2022/05/10 04:33:27;;;;;;;11.43;6.43;;;12.80;99.90;;;;;;5003565;28;20053;-68
2022/05/10 04:35:53;;;;;;;10.88;6.00;;;12.80;99.90;;;;;;5005676;28;20034;-68
2022/05/10 04:38:19;;;;;;;14.07;6.63;;;12.90;99.90;;;;;;5001690;28;20044;-68
2022/05/10 04:43:30;;;;;;;13.63;6.38;;;13.00;99.90;;;;;;5003601;28;20049;-68
2022/05/10 04:45:56;;;;;;;9.63;6.10;;;12.90;99.90;;;;;;5006391;28;20030;-68
2022/05/10 04:48:22;;;;;;;10.32;5.93;;;12.80;99.90;;;;;;5004919;28;20038;-67
2022/05/10 04:50:48;;;;;;;11.18;5.80;;;12.90;99.90;;;;;;4998593;28;20037;-67
2022/05/10 04:53:14;;;;;;;10.32;6.43;;;13.00;99.90;;;;;;4999549;28;20485;-68
2022/05/10 04:55:40;;;;;;;11.55;6.72;;;13.00;99.90;;;;;;5004611;28;20091;-68
2022/05/10 04:58:06;;;;;;;11.63;6.28;;;13.00;99.90;;;;;;5002432;28;20081;-68
2022/05/10 05:00:32;;;;;;;14.98;5.95;;;13.10;99.90;;;;;;5000160;28;20727;-68
2022/05/10 05:02:58;;;;;;;11.00;6.13;;;13.20;99.90;;;;;;4997709;28;20042;-69
2022/05/10 05:05:24;;;;;;;10.73;5.95;;;13.20;99.90;;;;;;5004161;28;20109;-67
2022/05/10 05:07:49;;;;;;;8.85;5.90;;;13.10;99.90;;;;;;5002088;28;20075;-68
2022/05/10 05:10:15;;;;;;;9.30;6.20;;;13.00;99.90;;;;;;5002119;28;20099;-68
2022/05/10 05:12:41;;;;;;;12.27;5.63;;;13.10;99.90;;;;;;5003064;28;20890;-68
2022/05/10 05:15:10;;;;;;;11.52;6.50;;;13.20;99.90;;;;;;5004655;28;20030;-67
2022/05/10 05:17:36;;;;;;;15.07;6.10;;;13.20;99.90;;;;;;5003529;28;20174;-68
2022/05/10 05:20:02;;;;;;;9.10;5.75;;;13.30;99.90;;;;;;5001315;28;20456;-69
2022/05/10 05:22:28;;;;;;;14.80;6.68;;;13.20;99.90;;;;;;4999929;28;20034;-68
2022/05/10 05:24:54;;;;;;;15.23;6.57;;;13.30;99.90;;;;;;5002562;28;20064;-68
2022/05/10 05:27:20;;;;;;;16.13;6.63;;;13.30;99.90;;;;;;5006928;28;20121;-68
2022/05/10 05:29:46;;;;;;;10.43;6.20;;;13.30;99.90;;;;;;5009127;28;20496;-68
2022/05/10 05:32:13;;;;;;;15.02;6.57;;;13.40;99.90;;;;;;5001284;28;20046;-69
2022/05/10 05:34:39;;;;;;;11.27;6.10;;;13.30;99.90;;;;;;4998627;28;20100;-69
2022/05/10 05:39:49;;;;;;;12.52;6.40;;;13.40;99.90;;;;;;5005876;28;20057;-67
2022/05/10 05:42:15;;;;;;;9.98;6.18;;;13.40;99.90;;;;;;5002620;28;20034;-68
2022/05/10 05:44:41;;;;;;;8.35;5.18;;;13.40;99.90;;;;;;4999354;28;20030;-68
2022/05/10 05:47:07;;;;;;;12.38;5.88;;;13.50;99.90;;;;;;5005168;28;21193;-68
2022/05/10 05:49:32;;;;;;;8.52;5.13;;;13.60;99.90;;;;;;5005097;28;20030;-68
2022/05/10 05:52:00;;;;;;;11.25;5.70;;;13.60;99.90;;;;;;4998719;28;20710;-68
2022/05/10 05:54:26;;;;;;;10.57;5.55;;;13.70;99.90;;;;;;5004646;28;20040;-68
2022/05/10 05:56:59;;;;;;;9.80;6.13;;;13.80;99.90;;;;;;5002203;28;20073;-68
2022/05/10 05:59:25;;;;;;;10.38;5.45;;;14.00;99.90;;;;;;5004863;28;20030;-67
2022/05/10 06:01:50;;;;;;;12.27;6.30;;;14.10;99.90;;;;;;5004583;28;20056;-68
2022/05/10 06:04:16;;;;;;;8.55;5.75;;;14.20;99.90;;;;;;5005047;28;20538;-68
2022/05/10 06:06:42;;;;;;;10.13;5.18;;;14.20;99.90;;;;;;5002838;28;20038;-67
2022/05/10 06:09:08;;;;;;;15.30;6.03;;;14.40;99.90;;;;;;5002189;28;20030;-67
2022/05/10 06:11:33;;;;;;;8.82;5.78;;;14.40;99.90;;;;;;5004255;28;20141;-67
2022/05/10 06:14:01;;;;;;;9.38;5.13;;;14.50;99.90;;;;;;5004650;28;20042;-67
2022/05/10 06:16:26;;;;;;;12.43;6.22;;;14.60;99.90;;;;;;5001432;28;20069;-67
2022/05/10 06:18:52;;;;;;;8.23;5.55;;;14.60;99.90;;;;;;5004897;28;20041;-67
2022/05/10 06:21:18;;;;;;;12.85;6.28;;;14.60;99.90;;;;;;5004428;28;20033;-68
2022/05/10 06:23:43;;;;;;;12.35;6.32;;;14.60;99.90;;;;;;5004764;28;20041;-67
2022/05/10 06:26:09;;;;;;;9.23;5.53;;;14.80;99.90;;;;;;4997365;28;20022;-67
2022/05/10 06:28:35;;;;;;;12.88;6.15;;;14.80;99.90;;;;;;4999610;28;20073;-67
2022/05/10 06:31:04;;;;;;;12.35;6.75;;;14.90;99.90;;;;;;4994709;28;20093;-67
2022/05/10 06:33:30;;;;;;;10.70;5.78;;;14.90;99.90;;;;;;5000077;28;20038;-67
2022/05/10 06:35:56;;;;;;;18.25;6.45;;;15.00;99.90;;;;;;5000236;28;20061;-67
2022/05/10 06:38:27;;;;;;;10.93;6.00;;;15.20;99.90;;;;;;5001887;28;20037;-67
2022/05/10 06:40:55;;;;;;;9.82;5.47;;;15.30;99.90;;;;;;5003164;28;20060;-67
2022/05/10 06:43:21;;;;;;;12.23;6.45;;;15.50;99.90;;;;;;4994969;28;20164;-66
2022/05/10 06:45:47;;;;;;;9.10;5.65;;;15.70;99.90;;;;;;5002793;28;20091;-67
2022/05/10 06:48:14;;;;;;;10.93;6.25;;;15.80;99.90;;;;;;5001989;28;20496;-67
2022/05/10 06:50:41;;;;;;;9.55;6.15;;;15.90;99.90;;;;;;4986495;28;20118;-67
2022/05/10 06:53:07;;;;;;;11.38;5.35;;;16.10;99.90;;;;;;5000054;28;20041;-67
2022/05/10 06:55:34;;;;;;;11.50;6.18;;;16.30;99.90;;;;;;4978408;28;20215;-68
2022/05/10 06:58:01;;;;;;;9.15;5.47;;;16.40;99.90;;;;;;4998748;28;20035;-67
2022/05/10 07:00:27;;;;;;;13.05;6.00;;;16.60;99.90;;;;;;4993174;28;20034;-68
2022/05/10 07:02:53;;;;;;;11.30;6.18;;;16.90;99.90;;;;;;4977148;28;20080;-68
2022/05/10 07:05:20;;;;;;;8.13;5.03;;;17.10;99.90;;;;;;4994277;28;20057;-67
2022/05/10 07:07:46;;;;;;;15.05;5.65;;;17.30;99.90;;;;;;4989525;28;20030;-67
2022/05/10 07:10:13;;;;;;;11.00;4.97;;;17.50;99.90;;;;;;4988892;28;20048;-68
2022/05/10 07:12:41;;;;;;;9.75;4.85;;;18.30;98.80;;;;;;4986228;28;20034;-67
2022/05/10 07:15:10;;;;;;;11.98;4.38;;;19.10;97.40;;;;;;4991626;28;20077;-67
2022/05/10 07:17:38;;;;;;;13.65;6.05;;;20.20;96.60;;;;;;4996315;28;20042;-67
2022/05/10 07:20:05;;;;;;;7.60;5.20;;;21.50;94.60;;;;;;4989653;28;20033;-67
2022/05/10 07:22:31;;;;;;;10.40;4.68;;;22.10;92.60;;;;;;4981895;28;20022;-67
2022/05/10 07:24:57;;;;;;;8.52;4.47;;;22.30;92.60;;;;;;4995769;28;20084;-67
2022/05/10 07:27:22;;;;;;;11.98;4.80;;;22.70;91.80;;;;;;4994248;28;20116;-67
2022/05/10 07:29:48;;;;;;;10.50;4.80;;;22.80;91.40;;;;;;4994772;28;20081;-67
2022/05/10 07:32:14;;;;;;;9.70;5.13;;;23.20;91.00;;;;;;4977416;28;20033;-67
2022/05/10 07:34:41;;;;;;;10.70;5.40;;;23.00;91.00;;;;;;5006119;28;20040;-67
2022/05/10 07:37:08;;;;;;;8.35;4.20;;;23.50;90.40;;;;;;5022792;28;20032;-67
2022/05/10 07:39:35;;;;;;;8.23;4.78;;;23.60;90.50;;;;;;4987464;28;20026;-67
2022/05/10 07:42:03;;;;;;;11.45;4.28;;;23.40;90.20;;;;;;4987732;28;20022;-67
2022/05/10 07:44:30;;;;;;;9.02;4.55;;;23.40;90.40;;;;;;4984590;28;20049;-67
2022/05/10 07:46:55;;;;;;;8.63;4.88;;;23.70;90.60;;;;;;4995066;28;20518;-67
2022/05/10 07:49:21;;;;;;;8.40;4.65;;;23.80;90.30;;;;;;4985247;28;20045;-67
2022/05/10 07:51:47;;;;;;;10.55;4.90;;;23.40;90.50;;;;;;4980376;28;20396;-67
2022/05/10 07:54:12;;;;;;;9.90;5.75;;;21.00;92.90;;;;;;4985573;28;20558;-67
2022/05/10 07:56:38;;;;;;;16.42;5.50;;;19.60;94.90;;;;;;4988450;28;20964;-67
2022/05/10 07:59:04;;;;;;;10.20;5.32;;;19.00;95.70;;;;;;4978533;28;20034;-67
2022/05/10 08:01:30;;;;;;;18.23;5.90;;;18.70;96.20;;;;;;4979716;28;20038;-67
2022/05/10 08:03:56;;;;;;;10.73;5.10;;;18.50;96.80;;;;;;4994498;28;20091;-67
2022/05/10 08:06:22;;;;;;;13.43;5.75;;;18.70;96.70;;;;;;4992446;28;20065;-67
2022/05/10 08:08:48;;;;;;;9.25;4.80;;;19.30;95.60;;;;;;4988199;28;20042;-68
2022/05/10 08:11:14;;;;;;;10.20;4.65;;;21.10;92.90;;;;;;4976404;28;20142;-68
2022/05/10 08:13:41;;;;;;;12.60;4.70;;;21.90;92.20;;;;;;4975591;28;20492;-68
2022/05/10 08:16:08;;;;;;;8.90;4.90;;;21.90;92.20;;;;;;4992166;28;20110;-67
2022/05/10 08:18:39;;;;;;;11.95;4.78;;;22.40;91.50;;;;;;5002072;28;20034;-67
2022/05/10 08:21:05;;;;;;;7.82;4.68;;;21.80;92.20;;;;;;5005965;28;20029;-67
2022/05/10 08:23:33;;;;;;;21.63;5.07;;;22.00;92.50;;;;;;5006825;28;20116;-66
2022/05/10 08:26:00;;;;;;;12.52;4.53;;;22.20;92.80;;;;;;4996256;28;21090;-67
2022/05/10 08:28:28;;;;;;;10.63;4.82;;;21.40;93.50;;;;;;4992981;28;20038;-68
2022/05/10 08:30:54;;;;;;;13.05;5.47;;;21.20;93.20;;;;;;4996865;28;20030;-69
2022/05/10 08:33:23;;;;;;;10.90;4.95;;;20.80;93.80;;;;;;4994403;28;20034;-67
2022/05/10 08:35:53;;;;;;;9.68;5.20;;;20.60;94.50;;;;;;4999487;28;20036;-69
2022/05/10 08:38:19;;;;;;;13.90;5.22;;;20.30;93.90;;;;;;4983111;28;20034;-67
2022/05/10 08:41:13;;;;;;;8.93;4.80;;;19.90;94.40;;;;;;4985754;28;20034;-67
2022/05/10 08:43:50;;;;;;;7.35;4.35;;;20.00;94.90;;;;;;5000000;28;20464;-67
2022/05/10 08:46:26;;;;;;;9.65;4.57;;;20.10;94.50;;;;;;5002408;28;20035;-67
2022/05/10 08:48:58;;;;;;;11.02;4.43;;;20.10;94.20;;;;;;5005918;28;20074;-67
2022/05/10 08:51:24;;;;;;;6.25;4.40;;;20.10;93.50;;;;;;5000185;28;20038;-67
2022/05/10 08:53:51;;;;;;;11.25;5.20;;;20.00;94.10;;;;;;5003796;28;20527;-67
2022/05/10 08:56:24;;;;;;;10.60;5.05;;;20.10;94.20;;;;;;4997806;28;20485;-67
2022/05/10 08:59:35;;;;;;;12.30;5.07;;;20.20;94.30;;;;;;5001163;28;20035;-67
2022/05/10 09:02:22;;;;;;;12.50;4.97;;;20.10;94.60;;;;;;4957959;28;1103179;-67
2022/05/10 09:05:01;;;;;;;8.80;4.43;;;20.70;93.60;;;;;;4992657;28;20055;-67
2022/05/10 09:08:03;;;;;;;9.05;4.22;;;20.50;93.60;;;;;;4977438;28;20042;-68
2022/05/10 09:10:41;;;;;;;7.68;4.22;;;20.40;93.40;;;;;;4987681;28;20041;-67
2022/05/10 09:13:11;;;;;;;9.98;4.72;;;20.80;94.40;;;;;;5006384;28;20046;-68
2022/05/10 09:15:40;;;;;;;7.22;4.13;;;20.90;93.90;;;;;;5005039;28;20026;-67
2022/05/10 09:18:21;;;;;;;11.52;5.07;;;20.90;93.90;;;;;;5006401;28;20038;-67
2022/05/10 09:21:14;;;;;;;10.20;4.88;;;21.10;93.40;;;;;;5015841;28;20037;-67
2022/05/10 09:24:08;;;;;;;16.77;5.73;;;21.00;92.90;;;;;;5026265;28;20033;-67
2022/05/10 09:26:45;;;;;;;9.30;4.65;;;21.10;93.30;;;;;;5025458;28;20041;-67
2022/05/10 09:29:41;;;;;;;11.90;5.03;;;21.30;93.20;;;;;;5025838;28;20030;-67
2022/05/10 09:35:29;;;;;;;10.57;4.75;;;21.80;92.90;;;;;;5002898;28;20694;-67
2022/05/10 09:38:02;;;;;;;8.43;5.38;;;21.90;93.20;;;;;;5002979;28;20129;-67
2022/05/10 09:40:36;;;;;;;7.97;4.93;;;22.10;92.40;;;;;;5000396;28;20041;-67
2022/05/10 09:43:23;;;;;;;11.77;4.55;;;22.00;92.10;;;;;;5000325;28;20044;-67
2022/05/10 09:46:10;;;;;;;11.85;4.35;;;22.10;91.60;;;;;;5005503;28;20033;-67
2022/05/10 09:48:40;;;;;;;9.45;4.63;;;22.10;91.60;;;;;;4998784;28;20601;-67
2022/05/10 09:51:25;;;;;;;11.50;4.30;;;22.50;92.00;;;;;;4993414;28;20022;-67
2022/05/10 09:53:52;;;;;;;;;;;22.80;91.80;;;;;;4994128;28;20065;-67
2022/05/10 09:56:23;;;;;;;8.60;4.15;;;22.80;91.90;;;;;;4991401;28;19909;-68
2022/05/10 09:59:05;;;;;;;11.80;4.95;;;23.00;92.40;;;;;;5010155;28;20026;-67
2022/05/10 10:01:48;;;;;;;9.48;4.47;;;22.90;93.10;;;;;;5025435;28;20563;-68
2022/05/10 10:04:13;;;;;;;9.27;4.75;;;23.10;91.70;;;;;;5025468;28;20053;-67
2022/05/10 10:06:39;;;;;;;7.43;4.00;;;23.30;92.00;;;;;;5010332;28;20036;-67
2022/05/10 10:09:05;;;;;;;11.80;4.65;;;23.30;91.10;;;;;;5004896;28;20113;-67
2022/05/10 10:11:34;;;;;;;9.82;4.80;;;23.00;91.00;;;;;;5003585;28;20622;-67
2022/05/10 10:14:01;;;;;;;13.35;4.35;;;23.20;91.10;;;;;;4992225;28;20119;-67
2022/05/10 10:16:31;;;;;;;9.07;4.40;;;22.90;88.70;;;;;;4994365;28;20041;-68
2022/05/10 10:19:29;;;;;;;11.73;3.65;;;23.40;90.40;;;;;;4998157;28;20088;-67
2022/05/10 10:22:04;;;;;;;14.20;4.28;;;23.40;88.10;;;;;;4998824;28;20048;-67
2022/05/10 10:24:42;;;;;;;8.95;4.18;;;23.60;88.80;;;;;;5001936;28;20068;-67
2022/05/10 10:27:22;;;;;;;8.77;4.18;;;23.70;87.90;;;;;;4993825;28;20073;-67
2022/05/10 10:29:53;;;;;;;9.90;4.70;;;23.60;89.30;;;;;;5005215;28;20439;-67
2022/05/10 10:32:29;;;;;;;11.60;5.13;;;23.80;89.30;;;;;;5005268;28;20080;-68
2022/05/10 10:35:09;;;;;;;10.98;4.85;;;23.80;88.20;;;;;;5004269;28;20048;-68
2022/05/10 10:37:50;;;;;;;17.98;4.30;;;23.70;87.30;;;;;;4995791;28;20459;-67
2022/05/10 10:40:32;;;;;;;8.48;3.90;;;23.50;86.90;;;;;;4996952;28;20026;-67
2022/05/10 10:43:36;;;;;;;10.68;4.20;;;23.80;88.10;;;;;;4999006;28;20026;-68
2022/05/10 10:46:07;;;;;;;8.20;3.63;;;23.70;86.50;;;;;;4976933;28;20062;-67
2022/05/10 10:49:01;;;;;;;8.45;4.13;;;23.90;90.00;;;;;;5004096;28;20093;-67
2022/05/10 10:51:32;;;;;;;9.10;4.15;;;24.30;86.60;;;;;;5000648;28;20045;-67
2022/05/10 10:53:59;;;;;;;9.65;4.13;;;24.70;85.40;;;;;;5003039;28;20503;-67
2022/05/10 10:56:56;;;;;;;12.73;4.10;;;24.60;86.50;;;;;;5013935;28;20022;-67
2022/05/10 10:59:54;;;;;;;14.10;3.70;;;24.80;87.00;;;;;;4997429;28;20037;-68
2022/05/10 11:02:38;;;;;;;8.98;4.28;;;24.70;84.30;;;;;;5004686;28;20627;-67
2022/05/10 11:05:13;;;;;;;;;;;24.70;86.50;;;;;;5004011;28;20037;-67
2022/05/10 11:07:46;;;;;;;;;;;24.60;85.80;;;;;;4997650;28;19910;-67
2022/05/10 11:10:25;;;;;;;12.90;3.97;;;24.10;83.60;;;;;;5004277;28;19909;-67
2022/05/10 11:13:22;;;;;;;8.40;4.45;;;24.20;83.70;;;;;;5004649;28;20069;-67
2022/05/10 11:16:03;;;;;;;9.23;3.55;;;24.70;81.70;;;;;;4990536;28;20085;-67
2022/05/10 11:18:50;;;;;;;12.43;4.20;;;25.00;80.30;;;;;;5001804;28;20056;-67
2022/05/10 11:21:37;;;;;;;13.60;3.47;;;25.30;82.50;;;;;;4999717;28;20380;-68
2022/05/10 11:24:24;;;;;;;9.20;3.60;;;25.50;83.60;;;;;;5004425;28;20037;-68
2022/05/10 11:27:13;;;;;;;11.68;3.85;;;25.60;77.90;;;;;;4996334;28;20113;-67
2022/05/10 11:29:57;;;;;;;8.98;3.78;;;25.50;79.10;;;;;;4987179;28;20034;-67
2022/05/10 11:32:38;;;;;;;10.30;3.40;;;25.60;82.20;;;;;;4979842;28;20045;-67
2022/05/10 11:35:25;;;;;;;11.30;4.47;;;25.60;77.80;;;;;;4987811;28;20133;-67
2022/05/10 11:37:58;;;;;;;8.52;2.97;;;25.60;78.60;;;;;;4986904;28;20034;-69
2022/05/10 11:40:54;;;;;;;7.70;3.03;;;25.60;76.90;;;;;;4996487;28;20022;-68
2022/05/10 11:43:55;;;;;;;8.27;3.05;;;25.60;79.10;;;;;;4977720;28;20535;-68
2022/05/10 11:46:20;;;;;;;9.90;2.92;;;25.60;77.70;;;;;;5006406;28;20063;-68
2022/05/10 11:49:07;;;;;;;15.25;4.10;;;25.60;78.40;;;;;;4996964;28;20034;-68
2022/05/10 11:51:48;;;;;;;14.05;4.20;;;25.90;78.00;;;;;;5003792;28;20097;-68
2022/05/10 11:54:38;;;;;;;11.25;3.20;;;26.20;78.70;;;;;;4999381;28;20041;-68
2022/05/10 11:57:24;;;;;;;6.28;3.22;;;26.40;79.70;;;;;;4984698;28;20037;-69
2022/05/10 11:59:50;;;;;;;7.35;3.00;;;26.30;77.40;;;;;;4980755;28;20408;-68
2022/05/10 12:02:28;;;;;;;9.27;3.38;;;26.40;77.90;;;;;;4986716;28;20051;-68
2022/05/10 12:05:20;;;;;;;10.15;3.30;;;26.80;77.80;;;;;;4992825;28;20034;-69
2022/05/10 12:08:01;;;;;;;16.65;3.75;;;26.80;76.60;;;;;;4999971;28;20084;-69
2022/05/10 12:10:37;;;;;;;11.85;3.53;;;26.60;76.00;;;;;;5010068;28;20030;-69
2022/05/10 12:13:08;;;;;;;10.98;4.30;;;26.90;77.80;;;;;;5021597;28;20045;-70
2022/05/10 12:21:51;;;;;;;6.93;2.80;;;26.90;75.40;;;;;;5001981;28;20033;-69
2022/05/10 12:24:20;;;;;;;7.10;3.05;;;26.60;74.50;;;;;;5005769;28;20040;-69
2022/05/10 12:27:16;;;;;;;7.70;2.78;;;26.70;76.60;;;;;;5022783;28;20113;-69
2022/05/10 12:29:41;;;;;;;7.57;2.83;;;26.70;76.00;;;;;;5009938;28;20034;-70
2022/05/10 12:32:26;;;;;;;8.15;3.33;;;27.00;74.80;;;;;;5005930;28;20038;-69
2022/05/10 12:35:00;;;;;;;8.77;3.58;;;26.80;75.30;;;;;;5005892;28;20045;-69
2022/05/10 12:37:26;;;;;;;8.07;2.85;;;26.90;75.00;;;;;;5006385;28;20045;-69
2022/05/10 12:40:00;;;;;;;9.10;3.55;;;27.00;75.90;;;;;;4994724;28;20030;-69
2022/05/10 12:43:00;;;;;;;10.13;3.22;;;26.80;75.60;;;;;;4992386;28;20029;-68
2022/05/10 12:45:44;;;;;;;7.32;2.83;;;27.10;76.20;;;;;;4980377;28;20125;-69
2022/05/10 12:48:33;;;;;;;8.15;4.32;;;26.80;73.60;;;;;;4982065;28;20512;-69
2022/05/10 12:51:17;;;;;;;10.00;3.08;;;26.80;73.60;;;;;;4982733;28;20085;-69
2022/05/10 12:54:04;;;;;;;6.70;2.95;;;27.00;74.80;;;;;;4995233;28;20196;-70
2022/05/10 12:56:52;;;;;;;7.50;2.95;;;27.00;73.80;;;;;;4982609;28;20022;-69
2022/05/10 12:59:29;;;;;;;7.65;2.90;;;27.00;75.20;;;;;;4996570;28;20054;-69
2022/05/10 13:01:57;;;;;;;10.10;3.58;;;27.00;74.60;;;;;;5005388;28;20026;-68
2022/05/10 13:04:29;;;;;;;6.78;3.30;;;26.80;73.70;;;;;;5006144;28;20549;-69
2022/05/10 13:07:19;;;;;;;9.30;3.42;;;26.80;74.90;;;;;;5003505;28;20034;-69
2022/05/10 13:09:49;;;;;;;8.10;3.55;;;26.90;73.40;;;;;;4999507;28;20053;-69
2022/05/10 13:12:28;;;;;;;9.43;3.25;;;26.80;72.80;;;;;;4991585;28;20428;-68
2022/05/10 13:15:03;;;;;;;8.38;3.20;;;26.70;73.00;;;;;;4983898;28;20125;-69
2022/05/10 13:17:32;;;;;;;13.63;3.30;;;26.90;74.40;;;;;;4989331;28;20172;-68
2022/05/10 13:19:59;;;;;;;9.02;3.38;;;26.80;73.00;;;;;;5001557;28;20128;-69
2022/05/10 13:22:27;;;;;;;8.65;2.92;;;27.00;72.40;;;;;;5005406;28;20045;-69
2022/05/10 13:25:04;;;;;;;10.95;3.42;;;26.90;73.50;;;;;;5005264;28;20029;-69
2022/05/10 13:27:35;;;;;;;9.05;3.53;;;26.90;72.10;;;;;;4993546;28;20080;-68
2022/05/10 13:30:17;;;;;;;12.07;3.72;;;27.00;74.20;;;;;;4991116;28;20033;-69
2022/05/10 13:32:49;;;;;;;10.75;3.50;;;27.00;72.90;;;;;;5001474;28;20419;-69
2022/05/10 13:35:26;;;;;;;7.80;3.17;;;27.10;74.10;;;;;;5005995;28;20036;-69